Time;durP1;ratioP1;P1;durP2;ratioP2;P2;SDS_P1;SDS_P2;PMS_P1;PMS_P2;Temp;Humidity;BMP_temperature;BMP_pressure;BME280_temperature;BME280_humidity;BME280_pressure;Samples;Min_cycle;Max_cycle;Signal;HPM_P1;HPM_P2
2021/04/03 00:01:29;;;;;;;28.00;6.50;;;7.30;99.90;;;;;;4116361;28;20194;-90
2021/04/03 00:03:30;;;;;;;21.53;5.73;;;7.30;99.90;;;;;;4116505;28;20272;-91
2021/04/03 00:05:32;;;;;;;31.50;6.20;;;7.10;99.90;;;;;;4132429;28;20204;-90
2021/04/03 00:07:32;;;;;;;20.87;5.67;;;7.20;99.90;;;;;;4148858;28;20165;-90
2021/04/03 00:09:33;;;;;;;20.03;5.77;;;6.90;99.90;;;;;;4116356;28;20201;-90
2021/04/03 00:11:34;;;;;;;28.23;6.07;;;7.00;99.90;;;;;;4116311;28;20202;-90
2021/04/03 00:13:39;;;;;;;29.50;7.23;;;6.80;99.90;;;;;;4132458;28;20177;-91
2021/04/03 00:15:40;;;;;;;23.37;5.90;;;6.80;99.90;;;;;;4148518;28;20256;-90
2021/04/03 00:17:41;;;;;;;25.83;6.20;;;6.70;99.90;;;;;;4132483;28;20256;-90
2021/04/03 00:19:42;;;;;;;25.33;5.40;;;6.60;99.90;;;;;;4161861;23;20276;-92
2021/04/03 00:21:42;;;;;;;29.13;6.47;;;6.90;99.90;;;;;;4148777;28;20185;-92
2021/04/03 00:23:43;;;;;;;19.67;5.97;;;6.80;99.90;;;;;;4132444;28;20185;-90
2021/04/03 00:25:44;;;;;;;34.87;6.20;;;7.00;99.90;;;;;;4132432;28;20536;-92
2021/04/03 00:27:45;;;;;;;31.07;7.10;;;7.10;99.90;;;;;;4148749;28;20184;-92
2021/04/03 00:29:45;;;;;;;28.30;6.10;;;7.30;99.90;;;;;;4132384;28;20212;-91
2021/04/03 00:31:46;;;;;;;25.47;6.90;;;7.30;99.90;;;;;;4132445;28;20224;-92
2021/04/03 00:33:46;;;;;;;25.00;6.20;;;7.40;99.90;;;;;;4132580;28;20219;-92
2021/04/03 00:35:47;;;;;;;23.47;5.90;;;7.00;99.90;;;;;;4133504;28;20208;-92
2021/04/03 00:37:49;;;;;;;25.37;5.93;;;6.80;99.90;;;;;;4151992;28;20216;-92
2021/04/03 00:39:50;;;;;;;28.33;6.23;;;6.80;99.90;;;;;;4135839;28;20264;-92
2021/04/03 00:41:50;;;;;;;30.20;6.27;;;7.30;99.90;;;;;;4151790;28;20177;-92
2021/04/03 00:43:51;;;;;;;31.30;6.90;;;7.50;99.90;;;;;;4151882;28;20176;-92
2021/04/03 00:45:52;;;;;;;23.37;6.43;;;7.50;99.90;;;;;;4151659;28;20180;-93
2021/04/03 00:47:53;;;;;;;33.37;7.40;;;7.50;99.90;;;;;;4135538;28;20223;-92
2021/04/03 00:49:54;;;;;;;22.50;6.47;;;7.50;99.90;;;;;;4151646;28;20200;-92
2021/04/03 00:51:54;;;;;;;30.90;6.37;;;7.30;99.90;;;;;;4151674;28;20207;-92
2021/04/03 00:53:56;;;;;;;20.03;6.53;;;7.40;99.90;;;;;;4151497;28;20228;-92
2021/04/03 00:55:57;;;;;;;31.40;7.40;;;7.40;99.90;;;;;;4135458;28;20176;-92
2021/04/03 00:58:00;;;;;;;28.70;7.60;;;7.30;99.90;;;;;;4151655;28;20191;-93
2021/04/03 01:00:03;;;;;;;26.80;6.03;;;7.00;99.90;;;;;;4135294;28;20597;-90
2021/04/03 01:02:06;;;;;;;33.67;7.73;;;6.70;99.90;;;;;;4151884;28;20272;-92
2021/04/03 01:04:09;;;;;;;21.07;6.30;;;6.50;99.90;;;;;;4151896;28;20582;-93
2021/04/03 01:06:10;;;;;;;18.27;6.10;;;6.40;99.90;;;;;;4151385;28;20177;-92
2021/04/03 01:08:11;;;;;;;32.77;6.77;;;6.30;99.90;;;;;;4135260;28;20177;-93
2021/04/03 01:10:16;;;;;;;22.50;6.00;;;6.40;99.90;;;;;;4135144;28;20570;-92
2021/04/03 01:12:35;;;;;;;25.43;7.20;;;6.50;99.90;;;;;;4151383;28;20199;-92
2021/04/03 01:14:53;;;;;;;24.37;6.93;;;6.50;99.90;;;;;;4134997;28;20239;-92
2021/04/03 01:17:34;;;;;;;35.90;7.53;;;6.60;99.90;;;;;;4135138;28;20260;-93
2021/04/03 01:20:21;;;;;;;27.27;6.43;;;6.80;99.90;;;;;;4086572;29;20231;-90
2021/04/03 01:22:38;;;;;;;33.70;7.57;;;6.70;99.90;;;;;;4108572;28;20196;-93
2021/04/03 01:25:04;;;;;;;16.83;5.73;;;7.30;99.90;;;;;;4134861;28;20252;-92
2021/04/03 01:27:13;;;;;;;25.83;7.00;;;7.50;99.90;;;;;;4100274;28;20545;-93
2021/04/03 01:29:28;;;;;;;27.27;7.07;;;7.20;99.90;;;;;;4135263;28;20228;-92
2021/04/03 01:31:31;;;;;;;33.13;7.27;;;7.20;99.90;;;;;;4134684;28;20225;-92
2021/04/03 01:33:41;;;;;;;34.97;7.83;;;7.50;99.90;;;;;;4135127;28;20174;-90
2021/04/03 01:35:58;;;;;;;31.70;7.17;;;7.30;99.90;;;;;;4134858;28;20801;-90
2021/04/03 01:38:07;;;;;;;26.90;6.07;;;7.50;99.90;;;;;;4150836;28;20165;-90
2021/04/03 01:40:10;;;;;;;25.07;6.00;;;7.60;99.90;;;;;;4150821;28;20192;-92
2021/04/03 01:42:19;;;;;;;32.90;6.97;;;7.60;99.90;;;;;;4150847;28;20297;-93
2021/04/03 01:44:30;;;;;;;25.73;6.70;;;7.50;99.90;;;;;;4134943;28;20572;-92
2021/04/03 01:46:35;;;;;;;28.80;6.90;;;7.50;99.90;;;;;;4134261;28;20174;-92
2021/04/03 01:48:40;;;;;;;23.07;6.37;;;7.40;99.90;;;;;;4134676;28;20240;-92
2021/04/03 01:50:44;;;;;;;26.80;7.23;;;7.40;99.90;;;;;;4134476;28;20190;-92
2021/04/03 01:52:47;;;;;;;23.67;6.70;;;7.30;99.90;;;;;;4134802;28;20178;-92
2021/04/03 01:54:56;;;;;;;34.20;7.43;;;7.40;99.90;;;;;;4134396;28;20659;-92
2021/04/03 01:56:58;;;;;;;26.60;6.10;;;7.40;99.90;;;;;;4150588;28;20165;-92
2021/04/03 01:59:11;;;;;;;30.70;5.93;;;7.50;99.90;;;;;;4135880;28;20169;-93
2021/04/03 02:01:15;;;;;;;27.50;6.00;;;7.50;99.90;;;;;;4134453;28;20246;-92
2021/04/03 02:03:17;;;;;;;31.00;6.27;;;7.40;99.90;;;;;;4150656;28;20501;-93
2021/04/03 02:05:21;;;;;;;25.30;5.63;;;7.30;99.90;;;;;;4150675;28;20176;-92
2021/04/03 02:07:32;;;;;;;32.03;6.53;;;7.40;99.90;;;;;;4135430;28;20165;-93
2021/04/03 02:09:35;;;;;;;27.50;5.97;;;7.50;99.90;;;;;;4134523;28;20261;-92
2021/04/03 02:11:52;;;;;;;30.63;6.57;;;7.50;99.90;;;;;;4150627;28;20169;-92
2021/04/03 02:14:16;;;;;;;31.40;5.93;;;7.50;99.90;;;;;;4150313;28;20311;-93
2021/04/03 02:16:18;;;;;;;26.13;5.50;;;7.40;99.90;;;;;;4134394;28;20177;-91
2021/04/03 02:18:21;;;;;;;27.20;6.00;;;7.30;99.90;;;;;;4150187;28;20232;-93
2021/04/03 02:20:25;;;;;;;22.93;6.00;;;7.20;99.90;;;;;;4150252;28;20223;-92
2021/04/03 02:22:26;;;;;;;25.83;5.83;;;7.40;99.90;;;;;;4150505;28;20169;-91
2021/04/03 02:24:35;;;;;;;26.37;5.57;;;7.50;99.90;;;;;;4135116;28;20620;-91
2021/04/03 02:26:37;;;;;;;32.97;6.70;;;7.50;99.90;;;;;;4134130;28;20180;-94
2021/04/03 02:28:39;;;;;;;31.17;5.67;;;7.50;99.90;;;;;;4134040;28;20177;-92
2021/04/03 02:30:41;;;;;;;29.50;5.77;;;7.40;99.90;;;;;;4133995;28;20232;-92
2021/04/03 02:32:49;;;;;;;35.30;7.30;;;7.40;99.90;;;;;;4133918;28;20541;-92
2021/04/03 02:34:50;;;;;;;32.50;6.03;;;7.50;99.90;;;;;;4133881;28;20205;-92
2021/04/03 02:36:52;;;;;;;23.40;5.47;;;7.50;99.90;;;;;;4149960;28;20169;-90
2021/04/03 02:38:53;;;;;;;23.60;6.03;;;7.50;99.90;;;;;;4133776;28;20184;-92
2021/04/03 02:40:54;;;;;;;25.33;5.30;;;7.50;99.90;;;;;;4133697;28;20293;-92
2021/04/03 02:43:08;;;;;;;21.23;4.10;;;7.50;99.90;;;;;;4149929;28;20177;-93
2021/04/03 02:45:17;;;;;;;26.27;5.70;;;7.30;99.90;;;;;;4150222;28;20169;-91
2021/04/03 02:47:22;;;;;;;22.97;5.30;;;7.10;99.90;;;;;;4133594;28;20181;-92
2021/04/03 02:49:27;;;;;;;29.33;5.30;;;7.10;99.90;;;;;;4149798;28;20624;-92
2021/04/03 02:51:36;;;;;;;24.73;4.90;;;7.10;99.90;;;;;;4133536;28;20229;-90
2021/04/03 02:53:38;;;;;;;27.43;4.80;;;7.00;99.90;;;;;;4133467;28;20324;-91
2021/04/03 02:55:49;;;;;;;29.67;5.17;;;7.00;99.90;;;;;;4134546;28;20173;-91
2021/04/03 02:57:53;;;;;;;24.57;4.47;;;6.90;99.90;;;;;;4133345;28;20648;-92
2021/04/03 02:59:57;;;;;;;21.63;3.77;;;6.80;99.90;;;;;;4133123;28;20281;-93
2021/04/03 03:02:00;;;;;;;22.40;4.37;;;6.90;99.90;;;;;;4133534;28;20169;-91
2021/04/03 03:04:02;;;;;;;17.40;3.43;;;6.80;99.90;;;;;;4133667;28;20296;-92
2021/04/03 03:06:08;;;;;;;16.80;2.73;;;6.80;99.90;;;;;;4133946;28;20174;-91
2021/04/03 03:08:13;;;;;;;25.97;3.17;;;6.70;99.90;;;;;;4133673;28;20201;-92
2021/04/03 03:10:15;;;;;;;20.17;2.60;;;6.70;99.90;;;;;;4133367;28;20300;-93
2021/04/03 03:12:19;;;;;;;18.30;2.77;;;6.70;99.90;;;;;;4133236;28;20258;-90
2021/04/03 03:14:22;;;;;;;22.40;3.27;;;6.70;99.90;;;;;;4149494;28;20205;-92
2021/04/03 03:16:24;;;;;;;24.97;3.40;;;6.70;99.90;;;;;;4149548;28;20172;-92
2021/04/03 03:18:27;;;;;;;18.67;3.07;;;6.70;99.90;;;;;;4133096;28;20213;-92
2021/04/03 03:20:28;;;;;;;19.87;3.20;;;6.70;99.90;;;;;;4133290;28;20194;-91
2021/04/03 03:22:32;;;;;;;15.97;3.10;;;6.60;99.90;;;;;;4149310;28;20173;-91
2021/04/03 03:24:34;;;;;;;27.07;4.63;;;6.60;99.90;;;;;;4149598;28;20169;-92
2021/04/03 03:26:38;;;;;;;13.67;2.60;;;6.60;99.90;;;;;;4149359;28;20629;-91
2021/04/03 03:28:40;;;;;;;17.03;3.23;;;6.50;99.90;;;;;;4149897;28;20168;-91
2021/04/03 03:30:42;;;;;;;22.77;2.60;;;6.60;99.90;;;;;;4133186;28;20233;-91
2021/04/03 03:32:48;;;;;;;18.17;2.77;;;6.60;99.90;;;;;;4149285;28;20177;-92
2021/04/03 03:34:49;;;;;;;18.10;2.43;;;6.70;99.90;;;;;;4132900;28;20221;-91
2021/04/03 03:36:50;;;;;;;17.53;2.40;;;6.60;99.90;;;;;;4133245;28;20211;-92
2021/04/03 03:38:55;;;;;;;18.27;2.50;;;6.60;99.90;;;;;;4133052;28;20730;-92
2021/04/03 03:40:57;;;;;;;16.80;2.97;;;6.60;99.90;;;;;;4132717;28;20220;-89
2021/04/03 03:43:02;;;;;;;14.87;2.90;;;6.70;99.90;;;;;;4133186;28;20177;-90
2021/04/03 03:45:09;;;;;;;17.37;2.50;;;6.80;99.90;;;;;;4133265;28;20565;-89
2021/04/03 03:47:10;;;;;;;18.50;2.87;;;6.80;99.90;;;;;;4132711;28;20236;-91
2021/04/03 03:49:13;;;;;;;20.77;2.50;;;6.80;99.90;;;;;;4149132;28;20506;-89
2021/04/03 03:51:14;;;;;;;20.77;3.17;;;6.80;99.90;;;;;;4132716;28;20314;-92
2021/04/03 03:53:25;;;;;;;25.63;2.80;;;6.80;99.90;;;;;;4149074;28;20254;-90
2021/04/03 03:55:26;;;;;;;19.60;2.97;;;6.80;99.90;;;;;;4132637;28;20304;-92
2021/04/03 03:57:26;;;;;;;18.30;2.93;;;6.90;99.90;;;;;;4132930;28;20169;-92
2021/04/03 03:59:27;;;;;;;23.33;3.20;;;7.00;99.90;;;;;;4132662;28;20271;-91
2021/04/03 04:01:28;;;;;;;19.40;2.63;;;7.10;99.90;;;;;;4148944;28;20199;-92
2021/04/03 04:03:29;;;;;;;23.07;3.07;;;7.20;99.90;;;;;;4132682;28;20184;-92
2021/04/03 04:05:33;;;;;;;19.90;3.30;;;7.30;99.90;;;;;;4133189;28;20603;-91
2021/04/03 04:07:37;;;;;;;18.40;2.77;;;7.30;99.90;;;;;;4148945;28;20169;-91
2021/04/03 04:09:41;;;;;;;23.20;2.90;;;7.40;99.90;;;;;;4132476;28;20174;-91
2021/04/03 04:11:42;;;;;;;20.07;3.20;;;7.40;99.90;;;;;;4132809;28;20173;-92
2021/04/03 04:13:52;;;;;;;15.27;2.87;;;7.60;99.90;;;;;;4149913;28;20179;-91
2021/04/03 04:16:00;;;;;;;17.27;2.77;;;7.60;99.90;;;;;;4149674;28;20192;-92
2021/04/03 04:18:01;;;;;;;23.37;3.40;;;7.60;99.90;;;;;;4148801;28;20174;-91
2021/04/03 04:20:03;;;;;;;18.50;3.90;;;7.60;99.90;;;;;;4148527;28;20237;-92
2021/04/03 04:22:06;;;;;;;22.07;3.03;;;7.50;99.90;;;;;;4132633;28;20166;-92
2021/04/03 04:24:07;;;;;;;23.00;3.10;;;7.30;99.90;;;;;;4132483;28;20170;-91
2021/04/03 04:26:13;;;;;;;20.63;3.17;;;7.30;99.90;;;;;;4148750;28;20711;-92
2021/04/03 04:28:16;;;;;;;25.50;3.20;;;7.50;99.90;;;;;;4132987;28;20168;-92
2021/04/03 04:30:18;;;;;;;18.90;3.63;;;7.60;99.90;;;;;;4148796;28;20668;-91
2021/04/03 04:32:29;;;;;;;19.53;3.37;;;7.80;99.90;;;;;;4134125;28;20270;-93
2021/04/03 04:34:31;;;;;;;21.70;3.63;;;7.90;99.90;;;;;;4132409;28;20280;-92
2021/04/03 04:36:35;;;;;;;16.90;3.20;;;7.80;99.90;;;;;;4133075;28;20185;-92
2021/04/03 04:38:39;;;;;;;25.73;3.67;;;8.00;99.90;;;;;;4133099;28;20249;-93
2021/04/03 04:40:40;;;;;;;22.23;3.97;;;8.10;99.90;;;;;;4148747;28;20201;-92
2021/04/03 04:42:44;;;;;;;19.23;3.40;;;8.20;99.90;;;;;;4132920;28;20170;-93
2021/04/03 04:44:48;;;;;;;20.47;3.00;;;8.20;99.90;;;;;;4132819;28;20177;-92
2021/04/03 04:46:49;;;;;;;22.17;3.77;;;8.10;99.90;;;;;;4132363;28;20177;-92
2021/04/03 04:48:50;;;;;;;29.47;3.47;;;8.00;99.90;;;;;;4148625;28;20661;-92
2021/04/03 04:50:57;;;;;;;27.57;3.80;;;7.90;99.90;;;;;;4132946;28;20193;-92
2021/04/03 04:52:57;;;;;;;24.00;3.50;;;7.80;99.90;;;;;;4132349;28;20193;-92
2021/04/03 04:55:03;;;;;;;26.63;3.70;;;7.90;99.90;;;;;;4132441;28;20577;-92
2021/04/03 04:57:05;;;;;;;20.00;3.70;;;8.00;99.90;;;;;;4132395;28;20201;-92
2021/04/03 04:59:20;;;;;;;17.63;3.90;;;7.90;99.90;;;;;;4134117;28;20181;-92
2021/04/03 05:01:29;;;;;;;24.50;3.87;;;8.10;99.90;;;;;;4133162;28;20193;-90
2021/04/03 05:03:31;;;;;;;18.70;3.63;;;8.00;99.90;;;;;;4132522;28;20297;-91
2021/04/03 05:05:32;;;;;;;31.10;4.67;;;7.80;99.90;;;;;;4132209;28;20178;-92
2021/04/03 05:07:32;;;;;;;26.30;4.60;;;7.80;99.90;;;;;;4132314;28;20178;-93
2021/04/03 05:09:33;;;;;;;25.10;4.07;;;7.90;99.90;;;;;;4132117;28;20614;-92
2021/04/03 05:11:35;;;;;;;25.07;3.97;;;8.00;99.90;;;;;;4148308;28;20703;-91
2021/04/03 05:13:35;;;;;;;23.90;4.17;;;8.10;99.90;;;;;;4132184;28;20186;-93
2021/04/03 05:15:36;;;;;;;28.83;4.80;;;8.00;99.90;;;;;;4148065;28;20721;-93
2021/04/03 05:17:36;;;;;;;22.30;4.10;;;8.20;99.90;;;;;;4132113;28;20174;-92
2021/04/03 05:19:37;;;;;;;31.43;4.87;;;8.20;99.90;;;;;;4131862;28;20236;-91
2021/04/03 05:21:38;;;;;;;30.60;4.13;;;8.30;99.90;;;;;;4132903;28;20201;-92
2021/04/03 05:23:39;;;;;;;30.87;4.23;;;8.20;99.90;;;;;;4134999;28;20236;-92
2021/04/03 05:25:39;;;;;;;26.97;3.77;;;8.00;99.90;;;;;;4134814;28;20205;-91
2021/04/03 05:27:40;;;;;;;29.37;4.10;;;7.80;99.90;;;;;;4134839;28;20224;-92
2021/04/03 05:29:41;;;;;;;30.80;4.63;;;7.60;99.90;;;;;;4134704;28;20679;-91
2021/04/03 05:31:42;;;;;;;26.43;4.17;;;7.60;99.90;;;;;;4150968;28;20173;-92
2021/04/03 05:33:42;;;;;;;26.30;4.40;;;7.50;99.90;;;;;;4134834;28;20181;-92
2021/04/03 05:35:43;;;;;;;38.07;5.33;;;7.60;99.90;;;;;;4150857;28;20180;-92
2021/04/03 05:37:45;;;;;;;29.77;3.77;;;7.50;99.90;;;;;;4134729;28;20178;-92
2021/04/03 05:39:45;;;;;;;30.87;4.60;;;7.60;99.90;;;;;;4150837;28;20267;-90
2021/04/03 05:41:46;;;;;;;29.43;4.30;;;7.60;99.90;;;;;;4134601;28;20173;-92
2021/04/03 05:43:48;;;;;;;27.93;4.40;;;7.60;99.90;;;;;;4150743;28;20180;-93
2021/04/03 05:45:56;;;;;;;20.97;3.67;;;7.30;99.90;;;;;;4134598;28;20675;-92
2021/04/03 05:47:58;;;;;;;23.63;3.60;;;7.20;99.90;;;;;;4134641;28;20284;-92
2021/04/03 05:50:00;;;;;;;31.17;4.30;;;7.20;99.90;;;;;;4150800;28;20759;-90
2021/04/03 05:52:03;;;;;;;23.07;4.10;;;7.10;99.90;;;;;;4134537;28;20256;-93
2021/04/03 05:54:05;;;;;;;25.63;3.90;;;7.10;99.90;;;;;;4134704;28;20763;-92
2021/04/03 05:56:05;;;;;;;31.60;3.60;;;7.10;99.90;;;;;;4150720;28;20636;-92
2021/04/03 05:58:06;;;;;;;22.93;3.30;;;7.00;99.90;;;;;;4150631;28;20175;-92
2021/04/03 06:00:08;;;;;;;35.47;3.60;;;7.00;99.90;;;;;;4134536;28;20201;-91
2021/04/03 06:02:16;;;;;;;27.20;3.87;;;7.00;99.90;;;;;;4150553;28;20272;-90
2021/04/03 06:04:16;;;;;;;23.13;3.50;;;7.10;99.90;;;;;;4134489;28;20170;-92
2021/04/03 06:06:17;;;;;;;30.67;4.00;;;7.10;99.90;;;;;;4150468;28;20172;-92
2021/04/03 06:08:19;;;;;;;23.60;4.20;;;7.10;99.90;;;;;;4134671;28;20193;-89
2021/04/03 06:10:19;;;;;;;24.70;3.77;;;7.00;99.90;;;;;;4134310;28;20264;-91
2021/04/03 06:12:49;;;;;;;26.43;3.77;;;7.10;99.90;;;;;;4150307;28;20165;-92
2021/04/03 06:14:50;;;;;;;26.67;3.73;;;7.20;99.90;;;;;;4118013;28;20241;-92
2021/04/03 06:16:52;;;;;;;20.17;3.37;;;7.20;99.90;;;;;;4150359;28;20169;-92
2021/04/03 06:19:11;;;;;;;17.33;3.77;;;7.10;99.90;;;;;;4150300;28;20229;-92
2021/04/03 06:21:12;;;;;;;25.03;3.53;;;7.10;99.90;;;;;;4167262;22;20201;-91
2021/04/03 06:23:13;;;;;;;23.47;3.77;;;7.10;99.90;;;;;;4169604;28;20204;-91
2021/04/03 06:25:14;;;;;;;25.10;3.60;;;7.10;99.90;;;;;;4169837;28;20176;-91
2021/04/03 06:27:17;;;;;;;28.93;3.77;;;7.00;99.90;;;;;;4169885;28;20180;-92
2021/04/03 06:29:44;;;;;;;23.37;3.33;;;7.10;99.90;;;;;;4170615;28;20176;-91
2021/04/03 06:31:50;;;;;;;22.33;2.60;;;7.30;99.90;;;;;;4168047;28;20183;-92
2021/04/03 06:33:51;;;;;;;39.10;4.73;;;7.20;99.90;;;;;;4151646;28;20165;-91
2021/04/03 06:36:11;;;;;;;27.77;3.30;;;7.30;99.90;;;;;;4135606;28;20180;-92
2021/04/03 06:38:28;;;;;;;31.60;3.50;;;7.30;99.90;;;;;;4152471;28;20180;-91
2021/04/03 06:40:29;;;;;;;19.33;2.80;;;7.40;99.90;;;;;;4136214;28;20193;-91
2021/04/03 06:42:51;;;;;;;29.13;3.70;;;7.40;99.90;;;;;;4134797;28;20177;-91
2021/04/03 06:44:52;;;;;;;19.37;3.77;;;7.40;99.90;;;;;;4152806;28;20283;-91
2021/04/03 06:46:53;;;;;;;21.70;3.47;;;7.40;99.90;;;;;;4135888;28;20170;-91
2021/04/03 06:48:58;;;;;;;12.93;2.87;;;7.40;99.90;;;;;;4135545;28;20162;-91
2021/04/03 06:50:59;;;;;;;26.87;4.40;;;7.40;99.90;;;;;;4153376;28;20281;-92
2021/04/03 06:53:10;;;;;;;15.80;2.80;;;7.40;99.90;;;;;;4135179;28;20201;-91
2021/04/03 06:55:18;;;;;;;27.07;2.97;;;7.50;99.90;;;;;;4135060;28;20205;-91
2021/04/03 06:57:19;;;;;;;18.33;3.53;;;7.60;99.90;;;;;;4151836;28;20180;-92
2021/04/03 06:59:23;;;;;;;25.93;3.63;;;7.50;99.90;;;;;;4166018;22;20710;-91
2021/04/03 07:01:27;;;;;;;23.97;3.50;;;7.50;99.90;;;;;;4167445;28;20199;-90
2021/04/03 07:03:28;;;;;;;28.43;3.73;;;7.70;99.90;;;;;;4151524;28;20196;-92
2021/04/03 07:05:35;;;;;;;22.73;2.83;;;7.60;99.90;;;;;;4151153;28;20161;-91
2021/04/03 07:07:37;;;;;;;23.33;2.70;;;7.50;99.90;;;;;;4151616;28;20176;-91
2021/04/03 07:09:42;;;;;;;19.97;2.97;;;7.60;99.90;;;;;;4169332;28;20681;-91
2021/04/03 07:11:43;;;;;;;20.63;2.73;;;7.80;99.90;;;;;;4167101;28;20187;-91
2021/04/03 07:13:45;;;;;;;24.43;2.73;;;8.00;99.90;;;;;;4152501;28;20175;-92
2021/04/03 07:15:47;;;;;;;15.50;2.57;;;8.10;99.90;;;;;;4150817;28;20181;-91
2021/04/03 07:17:49;;;;;;;16.23;3.20;;;8.20;99.90;;;;;;4151380;28;20232;-91
2021/04/03 07:19:52;;;;;;;22.77;2.93;;;8.20;99.90;;;;;;4150684;28;20184;-91
2021/04/03 07:21:53;;;;;;;14.10;2.40;;;8.10;99.90;;;;;;4167437;28;20169;-90
2021/04/03 07:24:01;;;;;;;18.40;2.90;;;8.20;99.90;;;;;;4152560;28;20260;-92
2021/04/03 07:26:03;;;;;;;13.60;2.27;;;8.40;99.90;;;;;;4159527;22;20227;-91
2021/04/03 07:28:04;;;;;;;18.07;3.67;;;8.30;99.90;;;;;;4151131;28;20172;-92
2021/04/03 07:30:06;;;;;;;26.00;3.10;;;8.20;99.90;;;;;;4150050;28;20189;-91
2021/04/03 07:32:07;;;;;;;26.57;2.80;;;8.10;99.90;;;;;;4134880;28;20259;-91
2021/04/03 07:34:13;;;;;;;20.50;3.30;;;8.20;99.90;;;;;;4136412;28;20292;-92
2021/04/03 07:36:34;;;;;;;20.90;2.83;;;8.30;99.90;;;;;;4135372;28;20203;-91
2021/04/03 07:38:36;;;;;;;21.20;3.13;;;8.20;99.90;;;;;;4154852;28;20603;-91
2021/04/03 07:40:40;;;;;;;22.93;3.23;;;8.30;99.90;;;;;;4153629;28;20255;-91
2021/04/03 07:42:41;;;;;;;28.53;3.87;;;8.20;99.90;;;;;;4136899;28;20165;-91
2021/04/03 07:44:42;;;;;;;26.53;3.43;;;8.20;99.90;;;;;;4135592;28;20249;-91
2021/04/03 07:46:47;;;;;;;26.50;3.70;;;8.30;99.90;;;;;;4135554;28;20177;-91
2021/04/03 07:48:59;;;;;;;19.50;3.10;;;8.40;99.90;;;;;;4135377;28;20235;-92
2021/04/03 07:50:59;;;;;;;30.93;4.40;;;8.40;99.90;;;;;;4139590;28;20208;-92
2021/04/03 07:53:00;;;;;;;26.70;3.30;;;8.40;99.90;;;;;;4135839;28;20158;-92
2021/04/03 07:55:36;;;;;;;17.73;2.87;;;8.40;99.90;;;;;;4135539;28;20616;-91
2021/04/03 07:57:36;;;;;;;27.97;2.97;;;8.40;99.90;;;;;;4135881;28;20243;-91
2021/04/03 07:59:43;;;;;;;19.73;3.20;;;8.40;99.90;;;;;;4151805;28;20172;-92
2021/04/03 08:01:46;;;;;;;21.63;3.20;;;8.50;99.90;;;;;;4134676;28;20178;-92
2021/04/03 08:03:54;;;;;;;20.47;3.57;;;8.50;99.90;;;;;;4135455;28;20174;-92
2021/04/03 08:05:59;;;;;;;16.60;3.00;;;8.50;99.90;;;;;;4134373;28;20184;-90
2021/04/03 08:08:01;;;;;;;25.83;3.80;;;8.30;99.90;;;;;;4135125;28;20568;-91
2021/04/03 08:10:02;;;;;;;30.63;3.33;;;8.20;99.90;;;;;;4135477;28;20197;-92
2021/04/03 08:12:04;;;;;;;21.73;3.60;;;8.30;99.90;;;;;;4134051;28;20180;-91
2021/04/03 08:14:08;;;;;;;27.30;3.93;;;8.20;99.90;;;;;;4135800;28;20220;-91
2021/04/03 08:16:13;;;;;;;21.43;3.70;;;8.30;99.90;;;;;;4134287;28;20181;-92
2021/04/03 08:18:13;;;;;;;21.57;3.83;;;8.30;99.90;;;;;;4136306;28;20660;-92
2021/04/03 08:20:14;;;;;;;23.30;3.50;;;8.30;99.90;;;;;;4134771;28;20198;-91
2021/04/03 08:22:15;;;;;;;36.20;4.17;;;8.30;99.90;;;;;;4150546;28;20181;-92
2021/04/03 08:24:18;;;;;;;20.83;3.80;;;8.30;99.90;;;;;;4155652;22;20220;-92
2021/04/03 08:26:22;;;;;;;24.83;4.50;;;8.40;99.90;;;;;;4150102;28;20235;-92
2021/04/03 08:28:23;;;;;;;30.63;4.73;;;8.30;99.90;;;;;;4166728;28;20532;-92
2021/04/03 08:30:31;;;;;;;18.07;3.47;;;8.30;99.90;;;;;;4151360;28;20184;-92
2021/04/03 08:32:32;;;;;;;25.17;3.87;;;8.40;99.90;;;;;;4151862;28;20234;-90
2021/04/03 08:34:32;;;;;;;21.57;3.83;;;8.40;99.90;;;;;;4149973;28;20672;-93
2021/04/03 08:36:35;;;;;;;26.47;4.10;;;8.50;99.90;;;;;;4150816;28;20187;-91
2021/04/03 08:38:36;;;;;;;38.67;4.67;;;8.40;99.90;;;;;;4150779;28;20165;-93
2021/04/03 08:40:37;;;;;;;27.80;4.40;;;8.50;99.90;;;;;;4151387;28;20185;-92
2021/04/03 08:42:38;;;;;;;22.00;3.47;;;8.50;99.90;;;;;;4167014;28;20233;-91
2021/04/03 08:44:43;;;;;;;35.23;4.37;;;8.40;99.90;;;;;;4166279;28;20651;-92
2021/04/03 08:46:46;;;;;;;27.60;4.90;;;8.30;99.90;;;;;;4165729;28;20180;-92
2021/04/03 08:48:57;;;;;;;35.47;5.47;;;8.30;99.90;;;;;;4166820;28;20161;-90
2021/04/03 08:50:58;;;;;;;26.47;4.40;;;8.40;99.90;;;;;;4168036;28;20211;-92
2021/04/03 08:53:03;;;;;;;33.50;4.20;;;8.50;99.90;;;;;;4149913;28;20615;-91
2021/04/03 08:55:05;;;;;;;20.33;3.93;;;8.50;99.90;;;;;;4151574;28;20666;-92
2021/04/03 08:57:22;;;;;;;26.83;3.43;;;8.40;99.90;;;;;;4152665;28;20184;-91
2021/04/03 08:59:25;;;;;;;23.23;4.37;;;8.30;99.90;;;;;;4153754;28;20660;-93
2021/04/03 09:01:29;;;;;;;25.37;4.43;;;8.30;99.90;;;;;;4152440;28;20683;-92
2021/04/03 09:03:30;;;;;;;23.10;3.87;;;8.50;99.90;;;;;;4152723;28;20224;-92
2021/04/03 09:05:31;;;;;;;36.40;4.97;;;8.60;99.90;;;;;;4169335;28;20219;-92
2021/04/03 09:07:33;;;;;;;21.30;3.70;;;8.60;99.90;;;;;;4168965;28;20211;-92
2021/04/03 09:09:33;;;;;;;28.00;3.93;;;8.60;99.90;;;;;;4152660;28;20173;-92
2021/04/03 09:11:34;;;;;;;25.13;4.73;;;8.60;99.90;;;;;;4169028;28;20583;-91
2021/04/03 09:13:43;;;;;;;23.27;3.27;;;8.60;99.90;;;;;;4169859;28;20293;-92
2021/04/03 09:15:47;;;;;;;26.50;3.60;;;8.50;99.90;;;;;;4153510;28;20700;-92
2021/04/03 09:18:09;;;;;;;21.57;3.30;;;8.50;99.90;;;;;;4152849;28;20165;-92
2021/04/03 09:20:14;;;;;;;31.13;4.50;;;8.40;99.90;;;;;;4154245;28;20181;-92
2021/04/03 09:22:19;;;;;;;32.07;4.63;;;8.40;99.90;;;;;;4153169;28;20181;-92
2021/04/03 09:24:53;;;;;;;26.03;4.67;;;8.50;99.90;;;;;;4152810;28;20220;-92
2021/04/03 09:26:54;;;;;;;25.63;4.40;;;8.50;99.90;;;;;;4146603;28;20208;-92
2021/04/03 09:29:10;;;;;;;29.03;4.60;;;8.50;99.90;;;;;;4170244;28;20172;-92
2021/04/03 09:31:11;;;;;;;17.90;4.27;;;8.50;99.90;;;;;;4165422;22;20711;-93
2021/04/03 09:33:23;;;;;;;18.73;3.73;;;8.60;99.90;;;;;;4153495;28;20218;-92
2021/04/03 09:35:27;;;;;;;36.53;4.93;;;8.70;99.90;;;;;;4168282;28;20218;-92
2021/04/03 09:37:28;;;;;;;26.77;4.30;;;8.60;99.90;;;;;;4153241;28;20184;-92
2021/04/03 09:39:42;;;;;;;26.23;4.10;;;8.60;99.90;;;;;;4169212;28;20582;-92
2021/04/03 09:41:53;;;;;;;31.60;3.97;;;8.70;99.90;;;;;;4136718;28;20241;-91
2021/04/03 09:43:55;;;;;;;25.50;4.53;;;8.90;99.90;;;;;;4136667;28;20176;-92
2021/04/03 09:45:57;;;;;;;27.10;3.93;;;8.80;99.90;;;;;;4136173;28;20161;-89
2021/04/03 09:48:00;;;;;;;25.90;4.20;;;8.70;99.90;;;;;;4134615;28;20180;-88
2021/04/03 09:50:04;;;;;;;24.30;4.10;;;8.80;99.90;;;;;;4134776;28;20222;-89
2021/04/03 09:52:06;;;;;;;25.13;3.93;;;9.00;99.90;;;;;;4134380;28;20632;-89
2021/04/03 09:54:08;;;;;;;25.77;4.53;;;9.20;99.90;;;;;;4134538;28;20173;-88
2021/04/03 09:56:09;;;;;;;15.53;3.63;;;9.20;99.90;;;;;;4150774;28;20692;-89
2021/04/03 09:58:10;;;;;;;21.93;3.60;;;9.00;99.90;;;;;;4134429;28;20197;-90
2021/04/03 10:00:11;;;;;;;27.67;3.60;;;8.90;99.90;;;;;;4134270;28;20201;-89
2021/04/03 10:02:13;;;;;;;22.97;3.77;;;9.00;99.90;;;;;;4134454;28;20178;-88
2021/04/03 10:04:15;;;;;;;28.67;3.90;;;9.00;99.90;;;;;;4134506;28;20255;-89
2021/04/03 10:06:15;;;;;;;35.33;4.97;;;9.00;99.90;;;;;;4134324;28;20189;-89
2021/04/03 10:08:16;;;;;;;22.07;3.77;;;8.90;99.90;;;;;;4150606;28;20256;-92
2021/04/03 10:10:17;;;;;;;26.13;3.43;;;8.90;99.90;;;;;;4135540;28;20305;-91
2021/04/03 10:12:18;;;;;;;24.70;4.57;;;9.00;99.90;;;;;;4135650;28;20170;-92
2021/04/03 10:14:19;;;;;;;28.67;4.30;;;9.20;99.90;;;;;;4135468;28;20721;-92
2021/04/03 10:16:20;;;;;;;13.63;3.33;;;9.20;99.90;;;;;;4136574;28;20178;-92
2021/04/03 10:18:21;;;;;;;28.60;3.97;;;9.10;99.90;;;;;;4152565;28;20211;-92
2021/04/03 10:20:21;;;;;;;28.70;4.70;;;9.30;99.90;;;;;;4136356;28;20202;-93
2021/04/03 10:22:22;;;;;;;35.37;3.90;;;9.60;99.90;;;;;;4135928;28;20174;-92
2021/04/03 10:24:24;;;;;;;22.33;3.47;;;9.60;99.90;;;;;;4135091;28;20185;-93
2021/04/03 10:26:25;;;;;;;23.90;3.27;;;9.60;99.90;;;;;;4135717;28;20202;-91
2021/04/03 10:28:26;;;;;;;27.97;3.60;;;9.60;99.90;;;;;;4135940;28;20224;-92
2021/04/03 10:30:27;;;;;;;24.13;4.00;;;9.50;99.90;;;;;;4151894;28;20193;-91
2021/04/03 10:32:27;;;;;;;16.47;2.90;;;9.60;99.90;;;;;;4135172;28;20605;-93
2021/04/03 10:34:28;;;;;;;14.50;2.73;;;9.60;99.90;;;;;;4152036;28;20292;-92
2021/04/03 10:36:29;;;;;;;19.10;3.07;;;9.70;99.90;;;;;;4136565;28;20174;-92
2021/04/03 10:38:30;;;;;;;21.57;3.30;;;10.00;99.90;;;;;;4135440;28;20584;-93
2021/04/03 10:40:30;;;;;;;24.53;3.17;;;10.20;99.90;;;;;;4137142;28;20204;-92
2021/04/03 10:42:31;;;;;;;19.17;2.97;;;10.40;99.90;;;;;;4152297;28;20177;-92
2021/04/03 10:44:32;;;;;;;18.60;3.07;;;10.30;99.90;;;;;;4151954;28;20177;-92
2021/04/03 10:46:33;;;;;;;19.77;3.53;;;10.30;99.90;;;;;;4136109;28;20691;-92